sensor_id;sensor_type;location;lat;lon;timestamp;P1;durP1;ratioP1;P2;durP2;ratioP2
37609;SDS011;23457;51.966;8.230;2022-11-06T00:01:09;12.00;;;5.68;;
37609;SDS011;23457;51.966;8.230;2022-11-06T00:03:38;10.77;;;5.78;;
37609;SDS011;23457;51.966;8.230;2022-11-06T00:06:08;12.60;;;5.75;;
37609;SDS011;23457;51.966;8.230;2022-11-06T00:09:00;11.43;;;6.22;;
37609;SDS011;23457;51.966;8.230;2022-11-06T00:11:28;11.15;;;5.65;;
37609;SDS011;23457;51.966;8.230;2022-11-06T00:13:55;14.77;;;6.00;;
37609;SDS011;23457;51.966;8.230;2022-11-06T00:16:22;11.38;;;6.72;;
37609;SDS011;23457;51.966;8.230;2022-11-06T00:18:49;13.27;;;6.65;;
37609;SDS011;23457;51.966;8.230;2022-11-06T00:21:17;13.00;;;6.20;;
37609;SDS011;23457;51.966;8.230;2022-11-06T00:23:46;11.48;;;6.45;;
37609;SDS011;23457;51.966;8.230;2022-11-06T00:26:17;12.57;;;5.85;;
37609;SDS011;23457;51.966;8.230;2022-11-06T00:28:48;12.35;;;5.55;;
37609;SDS011;23457;51.966;8.230;2022-11-06T00:31:16;11.23;;;6.03;;
37609;SDS011;23457;51.966;8.230;2022-11-06T00:33:44;11.48;;;6.18;;
37609;SDS011;23457;51.966;8.230;2022-11-06T00:36:13;11.55;;;6.30;;
37609;SDS011;23457;51.966;8.230;2022-11-06T00:41:09;11.27;;;6.47;;
37609;SDS011;23457;51.966;8.230;2022-11-06T00:43:38;11.20;;;6.03;;
37609;SDS011;23457;51.966;8.230;2022-11-06T00:46:05;13.02;;;6.20;;
37609;SDS011;23457;51.966;8.230;2022-11-06T00:48:34;13.63;;;6.65;;
37609;SDS011;23457;51.966;8.230;2022-11-06T00:51:06;11.82;;;5.75;;
37609;SDS011;23457;51.966;8.230;2022-11-06T00:53:38;12.63;;;6.38;;
37609;SDS011;23457;51.966;8.230;2022-11-06T00:56:05;9.05;;;6.03;;
37609;SDS011;23457;51.966;8.230;2022-11-06T00:58:34;14.02;;;6.65;;
37609;SDS011;23457;51.966;8.230;2022-11-06T01:01:05;17.85;;;6.95;;
37609;SDS011;23457;51.966;8.230;2022-11-06T01:03:32;11.98;;;6.43;;
37609;SDS011;23457;51.966;8.230;2022-11-06T01:06:03;10.73;;;6.90;;
37609;SDS011;23457;51.966;8.230;2022-11-06T01:08:37;13.45;;;6.90;;
37609;SDS011;23457;51.966;8.230;2022-11-06T01:11:08;12.00;;;6.82;;
37609;SDS011;23457;51.966;8.230;2022-11-06T01:13:39;11.00;;;6.50;;
37609;SDS011;23457;51.966;8.230;2022-11-06T01:16:13;13.88;;;6.53;;
37609;SDS011;23457;51.966;8.230;2022-11-06T01:18:41;13.15;;;6.82;;
37609;SDS011;23457;51.966;8.230;2022-11-06T01:21:10;15.48;;;6.68;;
37609;SDS011;23457;51.966;8.230;2022-11-06T01:23:41;11.32;;;6.90;;
37609;SDS011;23457;51.966;8.230;2022-11-06T01:26:09;12.23;;;6.55;;
37609;SDS011;23457;51.966;8.230;2022-11-06T01:28:38;12.95;;;6.78;;
37609;SDS011;23457;51.966;8.230;2022-11-06T01:31:07;12.27;;;6.45;;
37609;SDS011;23457;51.966;8.230;2022-11-06T01:33:36;12.00;;;6.45;;
37609;SDS011;23457;51.966;8.230;2022-11-06T01:36:03;11.82;;;6.35;;
37609;SDS011;23457;51.966;8.230;2022-11-06T01:38:30;16.95;;;6.80;;
37609;SDS011;23457;51.966;8.230;2022-11-06T01:40:56;11.77;;;6.65;;
37609;SDS011;23457;51.966;8.230;2022-11-06T01:46:20;12.50;;;6.55;;
37609;SDS011;23457;51.966;8.230;2022-11-06T01:48:56;13.77;;;6.60;;
37609;SDS011;23457;51.966;8.230;2022-11-06T01:51:26;12.05;;;7.28;;
37609;SDS011;23457;51.966;8.230;2022-11-06T01:53:54;10.73;;;5.88;;
37609;SDS011;23457;51.966;8.230;2022-11-06T01:56:22;13.15;;;6.05;;
37609;SDS011;23457;51.966;8.230;2022-11-06T01:58:51;16.35;;;6.10;;
37609;SDS011;23457;51.966;8.230;2022-11-06T02:01:19;13.60;;;6.95;;
37609;SDS011;23457;51.966;8.230;2022-11-06T02:03:50;13.50;;;7.15;;
37609;SDS011;23457;51.966;8.230;2022-11-06T02:06:28;10.68;;;5.95;;
37609;SDS011;23457;51.966;8.230;2022-11-06T02:08:55;10.88;;;6.60;;
37609;SDS011;23457;51.966;8.230;2022-11-06T02:11:21;13.80;;;6.03;;
37609;SDS011;23457;51.966;8.230;2022-11-06T02:14:01;10.70;;;5.63;;
37609;SDS011;23457;51.966;8.230;2022-11-06T02:16:40;11.48;;;6.00;;
37609;SDS011;23457;51.966;8.230;2022-11-06T02:19:19;11.02;;;5.30;;
37609;SDS011;23457;51.966;8.230;2022-11-06T02:22:34;13.40;;;5.35;;
37609;SDS011;23457;51.966;8.230;2022-11-06T02:25:21;11.25;;;5.40;;
37609;SDS011;23457;51.966;8.230;2022-11-06T02:28:01;15.10;;;5.65;;
37609;SDS011;23457;51.966;8.230;2022-11-06T02:30:43;9.52;;;4.72;;
37609;SDS011;23457;51.966;8.230;2022-11-06T02:33:13;14.07;;;4.82;;
37609;SDS011;23457;51.966;8.230;2022-11-06T02:38:22;8.98;;;4.93;;
37609;SDS011;23457;51.966;8.230;2022-11-06T02:40:57;10.00;;;4.82;;
37609;SDS011;23457;51.966;8.230;2022-11-06T02:43:30;13.82;;;5.03;;
37609;SDS011;23457;51.966;8.230;2022-11-06T02:46:25;9.52;;;4.43;;
37609;SDS011;23457;51.966;8.230;2022-11-06T02:49:06;11.48;;;4.75;;
37609;SDS011;23457;51.966;8.230;2022-11-06T02:51:37;11.65;;;4.35;;
37609;SDS011;23457;51.966;8.230;2022-11-06T02:54:08;8.27;;;3.92;;
37609;SDS011;23457;51.966;8.230;2022-11-06T02:56:38;9.13;;;4.07;;
37609;SDS011;23457;51.966;8.230;2022-11-06T02:59:14;7.60;;;3.92;;
37609;SDS011;23457;51.966;8.230;2022-11-06T03:01:48;10.40;;;4.35;;
37609;SDS011;23457;51.966;8.230;2022-11-06T03:04:38;12.07;;;4.82;;
37609;SDS011;23457;51.966;8.230;2022-11-06T03:07:14;11.73;;;4.50;;
37609;SDS011;23457;51.966;8.230;2022-11-06T03:09:56;12.23;;;4.05;;
37609;SDS011;23457;51.966;8.230;2022-11-06T03:12:30;11.50;;;4.18;;
37609;SDS011;23457;51.966;8.230;2022-11-06T03:15:14;10.38;;;3.88;;
37609;SDS011;23457;51.966;8.230;2022-11-06T03:20:29;7.82;;;3.58;;
37609;SDS011;23457;51.966;8.230;2022-11-06T03:25:34;7.40;;;3.97;;
37609;SDS011;23457;51.966;8.230;2022-11-06T03:30:51;8.00;;;4.07;;
37609;SDS011;23457;51.966;8.230;2022-11-06T03:33:30;15.23;;;4.15;;
37609;SDS011;23457;51.966;8.230;2022-11-06T03:36:07;8.65;;;4.20;;
37609;SDS011;23457;51.966;8.230;2022-11-06T03:38:41;5.25;;;3.58;;
37609;SDS011;23457;51.966;8.230;2022-11-06T03:41:36;13.45;;;3.63;;
37609;SDS011;23457;51.966;8.230;2022-11-06T03:44:05;9.13;;;4.15;;
37609;SDS011;23457;51.966;8.230;2022-11-06T03:46:36;14.40;;;4.50;;
37609;SDS011;23457;51.966;8.230;2022-11-06T03:49:08;7.72;;;3.17;;
37609;SDS011;23457;51.966;8.230;2022-11-06T03:51:39;9.80;;;3.55;;
37609;SDS011;23457;51.966;8.230;2022-11-06T03:54:11;8.23;;;3.00;;
37609;SDS011;23457;51.966;8.230;2022-11-06T03:56:44;8.30;;;3.55;;
37609;SDS011;23457;51.966;8.230;2022-11-06T03:59:16;12.43;;;3.88;;
37609;SDS011;23457;51.966;8.230;2022-11-06T04:01:48;12.63;;;3.47;;
37609;SDS011;23457;51.966;8.230;2022-11-06T04:04:32;7.88;;;3.45;;
37609;SDS011;23457;51.966;8.230;2022-11-06T04:07:07;10.38;;;3.22;;
37609;SDS011;23457;51.966;8.230;2022-11-06T04:09:37;9.75;;;3.00;;
37609;SDS011;23457;51.966;8.230;2022-11-06T04:12:26;6.93;;;3.27;;
37609;SDS011;23457;51.966;8.230;2022-11-06T04:15:14;7.82;;;3.38;;
37609;SDS011;23457;51.966;8.230;2022-11-06T04:20:11;10.20;;;3.10;;
37609;SDS011;23457;51.966;8.230;2022-11-06T04:23:07;5.30;;;3.22;;
37609;SDS011;23457;51.966;8.230;2022-11-06T04:25:51;8.27;;;3.10;;
37609;SDS011;23457;51.966;8.230;2022-11-06T04:28:51;10.75;;;3.50;;
37609;SDS011;23457;51.966;8.230;2022-11-06T04:34:03;10.80;;;2.85;;
37609;SDS011;23457;51.966;8.230;2022-11-06T04:36:58;9.15;;;3.08;;
37609;SDS011;23457;51.966;8.230;2022-11-06T04:45:16;11.07;;;3.25;;
37609;SDS011;23457;51.966;8.230;2022-11-06T04:47:45;6.53;;;2.90;;
37609;SDS011;23457;51.966;8.230;2022-11-06T04:50:13;6.57;;;3.03;;
37609;SDS011;23457;51.966;8.230;2022-11-06T04:52:42;5.95;;;2.88;;
37609;SDS011;23457;51.966;8.230;2022-11-06T04:55:10;9.85;;;3.28;;
37609;SDS011;23457;51.966;8.230;2022-11-06T04:57:36;8.60;;;2.80;;
37609;SDS011;23457;51.966;8.230;2022-11-06T05:00:03;13.65;;;3.33;;
37609;SDS011;23457;51.966;8.230;2022-11-06T05:02:31;7.88;;;2.92;;
37609;SDS011;23457;51.966;8.230;2022-11-06T05:04:58;7.15;;;3.33;;
37609;SDS011;23457;51.966;8.230;2022-11-06T05:07:25;10.88;;;2.92;;
37609;SDS011;23457;51.966;8.230;2022-11-06T05:09:51;6.82;;;2.83;;
37609;SDS011;23457;51.966;8.230;2022-11-06T05:12:18;11.15;;;3.42;;
37609;SDS011;23457;51.966;8.230;2022-11-06T05:14:45;8.60;;;2.85;;
37609;SDS011;23457;51.966;8.230;2022-11-06T05:17:11;7.97;;;2.80;;
37609;SDS011;23457;51.966;8.230;2022-11-06T05:19:38;7.45;;;3.00;;
37609;SDS011;23457;51.966;8.230;2022-11-06T05:22:04;6.97;;;2.75;;
37609;SDS011;23457;51.966;8.230;2022-11-06T05:24:50;7.20;;;3.15;;
37609;SDS011;23457;51.966;8.230;2022-11-06T05:27:16;6.05;;;2.92;;
37609;SDS011;23457;51.966;8.230;2022-11-06T05:29:43;7.10;;;3.20;;
37609;SDS011;23457;51.966;8.230;2022-11-06T05:32:10;7.10;;;2.75;;
37609;SDS011;23457;51.966;8.230;2022-11-06T05:34:37;10.05;;;3.13;;
37609;SDS011;23457;51.966;8.230;2022-11-06T05:37:03;7.25;;;3.00;;
37609;SDS011;23457;51.966;8.230;2022-11-06T05:39:30;14.05;;;3.55;;
37609;SDS011;23457;51.966;8.230;2022-11-06T05:41:57;5.30;;;2.78;;
37609;SDS011;23457;51.966;8.230;2022-11-06T05:44:24;9.63;;;2.78;;
37609;SDS011;23457;51.966;8.230;2022-11-06T05:46:50;6.95;;;2.80;;
37609;SDS011;23457;51.966;8.230;2022-11-06T05:49:17;9.65;;;3.03;;
37609;SDS011;23457;51.966;8.230;2022-11-06T05:51:44;5.53;;;2.20;;
37609;SDS011;23457;51.966;8.230;2022-11-06T05:54:11;6.43;;;2.85;;
37609;SDS011;23457;51.966;8.230;2022-11-06T05:56:37;6.47;;;3.33;;
37609;SDS011;23457;51.966;8.230;2022-11-06T05:59:04;10.00;;;3.25;;
37609;SDS011;23457;51.966;8.230;2022-11-06T06:01:31;9.10;;;3.22;;
37609;SDS011;23457;51.966;8.230;2022-11-06T06:03:58;12.65;;;3.13;;
37609;SDS011;23457;51.966;8.230;2022-11-06T06:06:25;8.82;;;2.90;;
37609;SDS011;23457;51.966;8.230;2022-11-06T06:08:52;8.82;;;3.25;;
37609;SDS011;23457;51.966;8.230;2022-11-06T06:11:18;7.20;;;3.08;;
37609;SDS011;23457;51.966;8.230;2022-11-06T06:13:45;8.48;;;2.55;;
37609;SDS011;23457;51.966;8.230;2022-11-06T06:16:13;12.27;;;3.15;;
37609;SDS011;23457;51.966;8.230;2022-11-06T06:18:39;7.20;;;2.65;;
37609;SDS011;23457;51.966;8.230;2022-11-06T06:21:06;6.10;;;3.00;;
37609;SDS011;23457;51.966;8.230;2022-11-06T06:23:32;5.40;;;2.92;;
37609;SDS011;23457;51.966;8.230;2022-11-06T06:26:00;6.15;;;2.75;;
37609;SDS011;23457;51.966;8.230;2022-11-06T06:28:26;7.88;;;2.92;;
37609;SDS011;23457;51.966;8.230;2022-11-06T06:30:53;11.63;;;3.30;;
37609;SDS011;23457;51.966;8.230;2022-11-06T06:33:26;10.02;;;3.35;;
37609;SDS011;23457;51.966;8.230;2022-11-06T06:35:53;7.63;;;3.20;;
37609;SDS011;23457;51.966;8.230;2022-11-06T06:38:19;11.20;;;3.20;;
37609;SDS011;23457;51.966;8.230;2022-11-06T06:40:46;7.72;;;3.38;;
37609;SDS011;23457;51.966;8.230;2022-11-06T06:43:12;12.32;;;3.60;;
37609;SDS011;23457;51.966;8.230;2022-11-06T06:45:39;9.68;;;2.95;;
37609;SDS011;23457;51.966;8.230;2022-11-06T06:48:07;7.95;;;3.25;;
37609;SDS011;23457;51.966;8.230;2022-11-06T06:50:34;11.02;;;3.67;;
37609;SDS011;23457;51.966;8.230;2022-11-06T06:53:01;8.00;;;3.30;;
37609;SDS011;23457;51.966;8.230;2022-11-06T06:55:28;11.02;;;3.22;;
37609;SDS011;23457;51.966;8.230;2022-11-06T06:57:58;5.60;;;2.95;;
37609;SDS011;23457;51.966;8.230;2022-11-06T07:00:25;10.57;;;3.50;;
37609;SDS011;23457;51.966;8.230;2022-11-06T07:02:54;6.53;;;3.30;;
37609;SDS011;23457;51.966;8.230;2022-11-06T07:05:21;6.82;;;3.70;;
37609;SDS011;23457;51.966;8.230;2022-11-06T07:07:48;9.10;;;3.40;;
37609;SDS011;23457;51.966;8.230;2022-11-06T07:10:14;7.78;;;3.55;;
37609;SDS011;23457;51.966;8.230;2022-11-06T07:12:41;11.00;;;3.25;;
37609;SDS011;23457;51.966;8.230;2022-11-06T07:15:08;8.70;;;3.65;;
37609;SDS011;23457;51.966;8.230;2022-11-06T07:17:35;12.90;;;4.15;;
37609;SDS011;23457;51.966;8.230;2022-11-06T07:20:02;8.57;;;4.63;;
37609;SDS011;23457;51.966;8.230;2022-11-06T07:22:29;7.18;;;3.70;;
37609;SDS011;23457;51.966;8.230;2022-11-06T07:25:02;6.63;;;3.65;;
37609;SDS011;23457;51.966;8.230;2022-11-06T07:27:30;10.93;;;3.70;;
37609;SDS011;23457;51.966;8.230;2022-11-06T07:29:56;9.10;;;3.58;;
37609;SDS011;23457;51.966;8.230;2022-11-06T07:32:23;7.60;;;3.20;;
37609;SDS011;23457;51.966;8.230;2022-11-06T07:34:49;7.78;;;3.58;;
37609;SDS011;23457;51.966;8.230;2022-11-06T07:37:16;8.25;;;2.80;;
37609;SDS011;23457;51.966;8.230;2022-11-06T07:39:42;10.15;;;3.60;;
37609;SDS011;23457;51.966;8.230;2022-11-06T07:42:09;6.88;;;2.83;;
37609;SDS011;23457;51.966;8.230;2022-11-06T07:44:36;6.82;;;3.13;;
37609;SDS011;23457;51.966;8.230;2022-11-06T07:47:02;12.18;;;3.33;;
37609;SDS011;23457;51.966;8.230;2022-11-06T07:49:29;8.05;;;3.17;;
37609;SDS011;23457;51.966;8.230;2022-11-06T07:51:55;9.95;;;2.92;;
37609;SDS011;23457;51.966;8.230;2022-11-06T07:54:22;13.57;;;3.53;;
37609;SDS011;23457;51.966;8.230;2022-11-06T07:56:48;9.18;;;3.88;;
37609;SDS011;23457;51.966;8.230;2022-11-06T07:59:15;13.05;;;3.60;;
37609;SDS011;23457;51.966;8.230;2022-11-06T08:01:42;7.95;;;3.00;;
37609;SDS011;23457;51.966;8.230;2022-11-06T08:04:09;7.72;;;3.08;;
37609;SDS011;23457;51.966;8.230;2022-11-06T08:06:36;11.40;;;3.00;;
37609;SDS011;23457;51.966;8.230;2022-11-06T08:09:06;4.75;;;2.38;;
37609;SDS011;23457;51.966;8.230;2022-11-06T08:11:33;6.97;;;2.63;;
37609;SDS011;23457;51.966;8.230;2022-11-06T08:14:00;6.93;;;2.67;;
37609;SDS011;23457;51.966;8.230;2022-11-06T08:16:27;7.70;;;2.42;;
37609;SDS011;23457;51.966;8.230;2022-11-06T08:18:53;3.75;;;2.13;;
37609;SDS011;23457;51.966;8.230;2022-11-06T08:21:21;9.98;;;2.28;;
37609;SDS011;23457;51.966;8.230;2022-11-06T08:23:48;6.25;;;1.98;;
37609;SDS011;23457;51.966;8.230;2022-11-06T08:26:14;8.38;;;2.35;;
37609;SDS011;23457;51.966;8.230;2022-11-06T08:28:41;7.40;;;2.10;;
37609;SDS011;23457;51.966;8.230;2022-11-06T08:31:08;7.65;;;2.35;;
37609;SDS011;23457;51.966;8.230;2022-11-06T08:33:35;7.38;;;2.15;;
37609;SDS011;23457;51.966;8.230;2022-11-06T08:36:03;8.05;;;2.22;;
37609;SDS011;23457;51.966;8.230;2022-11-06T08:38:31;5.03;;;2.00;;
37609;SDS011;23457;51.966;8.230;2022-11-06T08:41:02;6.40;;;2.67;;
37609;SDS011;23457;51.966;8.230;2022-11-06T08:43:32;5.45;;;1.70;;
37609;SDS011;23457;51.966;8.230;2022-11-06T08:46:00;7.25;;;1.92;;
37609;SDS011;23457;51.966;8.230;2022-11-06T08:48:27;5.40;;;1.95;;
37609;SDS011;23457;51.966;8.230;2022-11-06T08:50:53;6.88;;;2.33;;
37609;SDS011;23457;51.966;8.230;2022-11-06T08:53:20;7.07;;;2.35;;
37609;SDS011;23457;51.966;8.230;2022-11-06T08:55:46;11.27;;;2.22;;
37609;SDS011;23457;51.966;8.230;2022-11-06T08:58:13;6.88;;;2.20;;
37609;SDS011;23457;51.966;8.230;2022-11-06T09:00:40;9.25;;;2.33;;
37609;SDS011;23457;51.966;8.230;2022-11-06T09:03:12;7.50;;;2.40;;
37609;SDS011;23457;51.966;8.230;2022-11-06T09:05:42;3.28;;;1.90;;
37609;SDS011;23457;51.966;8.230;2022-11-06T09:08:09;5.72;;;2.00;;
37609;SDS011;23457;51.966;8.230;2022-11-06T09:10:37;9.02;;;1.77;;
37609;SDS011;23457;51.966;8.230;2022-11-06T09:13:06;7.18;;;1.73;;
37609;SDS011;23457;51.966;8.230;2022-11-06T09:15:33;8.15;;;2.90;;
37609;SDS011;23457;51.966;8.230;2022-11-06T09:17:59;4.97;;;1.77;;
37609;SDS011;23457;51.966;8.230;2022-11-06T09:20:26;6.38;;;1.90;;
37609;SDS011;23457;51.966;8.230;2022-11-06T09:22:53;6.70;;;1.92;;
37609;SDS011;23457;51.966;8.230;2022-11-06T09:25:25;7.32;;;2.00;;
37609;SDS011;23457;51.966;8.230;2022-11-06T09:27:51;7.38;;;1.63;;
37609;SDS011;23457;51.966;8.230;2022-11-06T09:30:25;9.00;;;2.83;;
37609;SDS011;23457;51.966;8.230;2022-11-06T09:32:58;7.53;;;2.42;;
37609;SDS011;23457;51.966;8.230;2022-11-06T09:35:27;7.80;;;2.63;;
37609;SDS011;23457;51.966;8.230;2022-11-06T09:37:59;6.70;;;2.58;;
37609;SDS011;23457;51.966;8.230;2022-11-06T09:40:32;5.00;;;2.05;;
37609;SDS011;23457;51.966;8.230;2022-11-06T09:46:08;4.45;;;1.67;;
37609;SDS011;23457;51.966;8.230;2022-11-06T09:49:02;4.25;;;1.42;;
37609;SDS011;23457;51.966;8.230;2022-11-06T09:51:43;5.05;;;1.63;;
37609;SDS011;23457;51.966;8.230;2022-11-06T09:57:12;5.68;;;1.73;;
37609;SDS011;23457;51.966;8.230;2022-11-06T09:59:44;7.35;;;1.63;;
37609;SDS011;23457;51.966;8.230;2022-11-06T10:02:24;4.43;;;1.38;;
37609;SDS011;23457;51.966;8.230;2022-11-06T10:07:51;8.63;;;1.77;;
37609;SDS011;23457;51.966;8.230;2022-11-06T10:10:23;6.60;;;1.60;;
37609;SDS011;23457;51.966;8.230;2022-11-06T10:16:13;8.25;;;2.15;;
37609;SDS011;23457;51.966;8.230;2022-11-06T10:24:36;4.97;;;1.55;;
37609;SDS011;23457;51.966;8.230;2022-11-06T10:27:08;7.38;;;1.60;;
37609;SDS011;23457;51.966;8.230;2022-11-06T10:29:50;6.90;;;1.60;;
37609;SDS011;23457;51.966;8.230;2022-11-06T10:37:29;6.22;;;1.60;;
37609;SDS011;23457;51.966;8.230;2022-11-06T10:40:02;8.90;;;1.80;;
37609;SDS011;23457;51.966;8.230;2022-11-06T10:42:35;5.95;;;1.30;;
37609;SDS011;23457;51.966;8.230;2022-11-06T10:45:07;8.55;;;2.28;;
37609;SDS011;23457;51.966;8.230;2022-11-06T10:47:58;6.40;;;1.23;;
37609;SDS011;23457;51.966;8.230;2022-11-06T10:50:33;5.20;;;1.52;;
37609;SDS011;23457;51.966;8.230;2022-11-06T10:53:30;6.03;;;1.70;;
37609;SDS011;23457;51.966;8.230;2022-11-06T10:56:20;5.35;;;1.50;;
37609;SDS011;23457;51.966;8.230;2022-11-06T10:59:02;6.72;;;1.55;;
37609;SDS011;23457;51.966;8.230;2022-11-06T11:01:30;7.65;;;1.83;;
37609;SDS011;23457;51.966;8.230;2022-11-06T11:03:57;4.97;;;1.73;;
37609;SDS011;23457;51.966;8.230;2022-11-06T11:06:24;8.88;;;2.03;;
37609;SDS011;23457;51.966;8.230;2022-11-06T11:08:51;4.85;;;1.15;;
37609;SDS011;23457;51.966;8.230;2022-11-06T11:11:19;6.45;;;1.63;;
37609;SDS011;23457;51.966;8.230;2022-11-06T11:16:27;4.05;;;1.30;;
37609;SDS011;23457;51.966;8.230;2022-11-06T11:19:13;5.13;;;1.42;;
37609;SDS011;23457;51.966;8.230;2022-11-06T11:21:52;3.88;;;1.40;;
37609;SDS011;23457;51.966;8.230;2022-11-06T11:26:47;4.78;;;1.35;;
37609;SDS011;23457;51.966;8.230;2022-11-06T11:31:58;6.82;;;1.45;;
37609;SDS011;23457;51.966;8.230;2022-11-06T11:34:28;5.15;;;1.80;;
37609;SDS011;23457;51.966;8.230;2022-11-06T11:37:01;3.30;;;1.33;;
37609;SDS011;23457;51.966;8.230;2022-11-06T11:39:29;7.85;;;1.90;;
37609;SDS011;23457;51.966;8.230;2022-11-06T11:42:20;5.85;;;1.42;;
37609;SDS011;23457;51.966;8.230;2022-11-06T11:47:36;4.28;;;1.80;;
37609;SDS011;23457;51.966;8.230;2022-11-06T11:50:37;6.05;;;1.60;;
37609;SDS011;23457;51.966;8.230;2022-11-06T11:55:41;8.90;;;2.30;;
37609;SDS011;23457;51.966;8.230;2022-11-06T11:58:18;4.90;;;1.50;;
37609;SDS011;23457;51.966;8.230;2022-11-06T12:00:50;4.85;;;1.45;;
37609;SDS011;23457;51.966;8.230;2022-11-06T12:03:26;3.22;;;1.40;;
37609;SDS011;23457;51.966;8.230;2022-11-06T12:06:18;3.20;;;1.20;;
37609;SDS011;23457;51.966;8.230;2022-11-06T12:08:54;5.25;;;1.50;;
37609;SDS011;23457;51.966;8.230;2022-11-06T12:11:22;5.07;;;1.55;;
37609;SDS011;23457;51.966;8.230;2022-11-06T12:14:15;3.75;;;1.73;;
37609;SDS011;23457;51.966;8.230;2022-11-06T12:17:09;4.25;;;1.55;;
37609;SDS011;23457;51.966;8.230;2022-11-06T12:19:45;8.25;;;1.42;;
37609;SDS011;23457;51.966;8.230;2022-11-06T12:22:19;5.68;;;2.10;;
37609;SDS011;23457;51.966;8.230;2022-11-06T12:24:57;5.68;;;2.72;;
37609;SDS011;23457;51.966;8.230;2022-11-06T12:27:42;6.57;;;3.10;;
37609;SDS011;23457;51.966;8.230;2022-11-06T12:30:18;6.88;;;1.52;;
37609;SDS011;23457;51.966;8.230;2022-11-06T12:33:09;6.22;;;1.50;;
37609;SDS011;23457;51.966;8.230;2022-11-06T12:35:41;4.68;;;1.48;;
37609;SDS011;23457;51.966;8.230;2022-11-06T12:40:57;3.88;;;1.42;;
37609;SDS011;23457;51.966;8.230;2022-11-06T12:46:21;3.55;;;1.35;;
37609;SDS011;23457;51.966;8.230;2022-11-06T12:57:25;5.60;;;1.75;;
37609;SDS011;23457;51.966;8.230;2022-11-06T13:00:10;4.88;;;1.52;;
37609;SDS011;23457;51.966;8.230;2022-11-06T13:05:30;4.13;;;1.40;;
37609;SDS011;23457;51.966;8.230;2022-11-06T13:11:13;5.88;;;2.00;;
37609;SDS011;23457;51.966;8.230;2022-11-06T13:17:11;5.88;;;2.13;;
37609;SDS011;23457;51.966;8.230;2022-11-06T13:22:37;4.00;;;1.70;;
37609;SDS011;23457;51.966;8.230;2022-11-06T13:30:35;5.40;;;1.70;;
37609;SDS011;23457;51.966;8.230;2022-11-06T13:35:48;5.53;;;1.30;;
37609;SDS011;23457;51.966;8.230;2022-11-06T13:38:16;3.60;;;1.50;;
37609;SDS011;23457;51.966;8.230;2022-11-06T13:40:49;5.40;;;1.67;;
37609;SDS011;23457;51.966;8.230;2022-11-06T13:43:20;4.28;;;1.58;;
37609;SDS011;23457;51.966;8.230;2022-11-06T13:48:34;7.35;;;1.30;;
37609;SDS011;23457;51.966;8.230;2022-11-06T13:59:52;3.17;;;0.85;;
37609;SDS011;23457;51.966;8.230;2022-11-06T14:05:52;6.35;;;2.30;;
37609;SDS011;23457;51.966;8.230;2022-11-06T14:13:36;4.10;;;1.35;;
37609;SDS011;23457;51.966;8.230;2022-11-06T14:24:19;5.18;;;2.08;;
37609;SDS011;23457;51.966;8.230;2022-11-06T14:26:55;3.33;;;1.33;;
37609;SDS011;23457;51.966;8.230;2022-11-06T14:34:27;4.78;;;1.42;;
37609;SDS011;23457;51.966;8.230;2022-11-06T14:36:56;6.22;;;1.48;;
37609;SDS011;23457;51.966;8.230;2022-11-06T14:44:56;3.65;;;1.52;;
37609;SDS011;23457;51.966;8.230;2022-11-06T14:47:39;4.55;;;1.58;;
37609;SDS011;23457;51.966;8.230;2022-11-06T14:55:56;5.63;;;2.00;;
37609;SDS011;23457;51.966;8.230;2022-11-06T15:01:11;5.05;;;1.85;;
37609;SDS011;23457;51.966;8.230;2022-11-06T15:03:45;4.57;;;1.30;;
37609;SDS011;23457;51.966;8.230;2022-11-06T15:13:55;7.07;;;1.67;;
37609;SDS011;23457;51.966;8.230;2022-11-06T15:16:42;3.15;;;1.55;;
37609;SDS011;23457;51.966;8.230;2022-11-06T15:22:11;3.97;;;1.50;;
37609;SDS011;23457;51.966;8.230;2022-11-06T15:24:53;5.82;;;1.40;;
37609;SDS011;23457;51.966;8.230;2022-11-06T15:27:31;5.07;;;1.60;;
37609;SDS011;23457;51.966;8.230;2022-11-06T15:30:08;4.18;;;1.50;;
37609;SDS011;23457;51.966;8.230;2022-11-06T15:32:41;9.93;;;4.38;;
37609;SDS011;23457;51.966;8.230;2022-11-06T15:35:23;6.35;;;3.25;;
37609;SDS011;23457;51.966;8.230;2022-11-06T15:38:06;10.63;;;2.88;;
37609;SDS011;23457;51.966;8.230;2022-11-06T15:40:38;5.50;;;1.95;;
37609;SDS011;23457;51.966;8.230;2022-11-06T15:43:22;2.22;;;1.25;;
37609;SDS011;23457;51.966;8.230;2022-11-06T15:46:05;3.15;;;1.42;;
37609;SDS011;23457;51.966;8.230;2022-11-06T15:48:37;6.28;;;1.60;;
37609;SDS011;23457;51.966;8.230;2022-11-06T15:51:18;5.07;;;2.38;;
37609;SDS011;23457;51.966;8.230;2022-11-06T15:53:46;5.00;;;1.98;;
37609;SDS011;23457;51.966;8.230;2022-11-06T15:56:13;7.03;;;1.95;;
37609;SDS011;23457;51.966;8.230;2022-11-06T15:58:43;5.35;;;2.67;;
37609;SDS011;23457;51.966;8.230;2022-11-06T16:01:10;6.90;;;2.53;;
37609;SDS011;23457;51.966;8.230;2022-11-06T16:03:47;9.82;;;2.97;;
37609;SDS011;23457;51.966;8.230;2022-11-06T16:06:18;5.65;;;2.60;;
37609;SDS011;23457;51.966;8.230;2022-11-06T16:08:46;7.90;;;3.05;;
37609;SDS011;23457;51.966;8.230;2022-11-06T16:11:15;7.30;;;3.10;;
37609;SDS011;23457;51.966;8.230;2022-11-06T16:13:44;5.57;;;3.20;;
37609;SDS011;23457;51.966;8.230;2022-11-06T16:19:14;9.10;;;3.35;;
37609;SDS011;23457;51.966;8.230;2022-11-06T16:21:48;8.23;;;3.30;;
37609;SDS011;23457;51.966;8.230;2022-11-06T16:27:08;6.35;;;2.92;;
37609;SDS011;23457;51.966;8.230;2022-11-06T16:29:36;6.45;;;3.60;;
37609;SDS011;23457;51.966;8.230;2022-11-06T16:34:40;10.98;;;3.75;;
37609;SDS011;23457;51.966;8.230;2022-11-06T16:39:50;6.30;;;3.40;;
37609;SDS011;23457;51.966;8.230;2022-11-06T16:44:48;8.05;;;4.07;;
37609;SDS011;23457;51.966;8.230;2022-11-06T16:47:16;8.77;;;3.55;;
37609;SDS011;23457;51.966;8.230;2022-11-06T16:55:00;9.45;;;3.70;;
37609;SDS011;23457;51.966;8.230;2022-11-06T16:57:32;7.28;;;3.55;;
37609;SDS011;23457;51.966;8.230;2022-11-06T17:00:45;8.88;;;4.15;;
37609;SDS011;23457;51.966;8.230;2022-11-06T17:02:59;8.55;;;4.30;;
37609;SDS011;23457;51.966;8.230;2022-11-06T17:05:29;10.50;;;4.20;;
37609;SDS011;23457;51.966;8.230;2022-11-06T17:11:14;7.15;;;4.43;;
37609;SDS011;23457;51.966;8.230;2022-11-06T17:13:58;6.40;;;4.00;;
37609;SDS011;23457;51.966;8.230;2022-11-06T17:16:25;7.85;;;3.30;;
37609;SDS011;23457;51.966;8.230;2022-11-06T17:19:02;5.95;;;3.25;;
37609;SDS011;23457;51.966;8.230;2022-11-06T17:21:36;7.85;;;3.83;;
37609;SDS011;23457;51.966;8.230;2022-11-06T17:24:10;6.93;;;3.72;;
37609;SDS011;23457;51.966;8.230;2022-11-06T17:27:03;7.05;;;3.95;;
37609;SDS011;23457;51.966;8.230;2022-11-06T17:29:30;8.95;;;3.92;;
37609;SDS011;23457;51.966;8.230;2022-11-06T17:31:58;8.82;;;3.08;;
37609;SDS011;23457;51.966;8.230;2022-11-06T17:34:25;5.38;;;2.58;;
37609;SDS011;23457;51.966;8.230;2022-11-06T17:36:52;7.43;;;2.00;;
37609;SDS011;23457;51.966;8.230;2022-11-06T17:39:18;3.63;;;1.98;;
37609;SDS011;23457;51.966;8.230;2022-11-06T17:41:45;3.65;;;2.03;;
37609;SDS011;23457;51.966;8.230;2022-11-06T17:44:12;5.38;;;2.67;;
37609;SDS011;23457;51.966;8.230;2022-11-06T17:46:40;3.17;;;2.17;;
37609;SDS011;23457;51.966;8.230;2022-11-06T17:49:08;7.13;;;2.45;;
37609;SDS011;23457;51.966;8.230;2022-11-06T17:51:42;3.22;;;2.00;;
37609;SDS011;23457;51.966;8.230;2022-11-06T17:54:15;3.25;;;2.13;;
37609;SDS011;23457;51.966;8.230;2022-11-06T17:56:43;3.67;;;2.13;;
37609;SDS011;23457;51.966;8.230;2022-11-06T17:59:10;3.58;;;2.10;;
37609;SDS011;23457;51.966;8.230;2022-11-06T18:01:38;3.17;;;1.83;;
37609;SDS011;23457;51.966;8.230;2022-11-06T18:04:06;4.15;;;2.22;;
37609;SDS011;23457;51.966;8.230;2022-11-06T18:06:32;3.50;;;1.88;;
37609;SDS011;23457;51.966;8.230;2022-11-06T18:09:00;5.03;;;2.13;;